METAR Data
IDs: Format: Raw Decoded Include TAF

Data at: 0821 UTC 20 Sep 2018

PAOR 200753Z 00000KT 10SM FEW150 FEW200 01/01 A3012 RMK AO2 SLP218 T00060006
PAOR 200653Z 00000KT 10SM FEW150 02/02 A3011 RMK AO2 SLP216 T00220022
PAOR 200553Z 00000KT 10SM FEW120 SCT150 03/03 A3011 RMK AO2 SLP215 T00280028 10144 20028 55001
PAOR 200453Z AUTO 00000KT 10SM CLR 05/04 A3010 RMK AO2 SLP212 T00500044 TSNO
PAOR 200353Z AUTO 00000KT 10SM FEW075 07/03 A3011 RMK AO2 SLP213 T00670033 TSNO
PAOR 200253Z AUTO 00000KT 10SM SCT080 BKN120 12/03 A3011 RMK AO2 SLP209 T01170028 55004 TSNO
PAOR 200153Z AUTO 00000KT 10SM SCT060 OVC200 13/02 A3011 RMK AO2 SLP206 VIRGA N-E T01280022 TSNO
PAOR 200053Z 00000KT 10SM BKN080 OVC200 13/02 A3011 RMK AO2 SLP207 VIRGA E T01330017
PAOR 192353Z VRB03KT 10SM SCT055 OVC200 13/03 A3012 RMK AO2 SLP210 T01330028 10139 20061 56015
PAOR 192253Z 31005KT 10SM FEW080 13/04 A3013 RMK AO2 SLP214 T01330044
PAOR 192153Z VRB06KT 10SM FEW045 FEW080 OVC200 13/05 A3015 RMK AO2 SLP220 T01280050
PAOR 192053Z 33005KT 10SM FEW045 BKN080 OVC200 11/06 A3017 RMK AO2 SLP227 T01110061 58003
PAOR 191953Z 33005KT 10SM FEW050 BKN090 OVC200 09/06 A3017 RMK AO2 SLP231 T00890061
PAOR 191935Z VRB04KT 10SM SCT006 SCT050 BKN090 09/06 A3017 RMK AO2 T00890061
PAOR 191900Z 31007KT 10SM BKN006 OVC090 08/06 A3018 RMK AO2 T00780061
PAOR 191853Z VRB04KT 10SM BKN004 OVC090 08/06 A3018 RMK AO2 SLP233 T00780061
PAOR 191830Z 35006KT 10SM OVC004 07/06 A3018 RMK AO2 T00720061
PAOR 191819Z 32006KT 10SM BKN005 OVC090 07/06 A3018 RMK AO2 T00670056
PAOR 191809Z 34007KT 10SM SCT005 BKN090 BKN200 07/05 A3018 RMK AO2 T00670050
PAOR 191753Z 32007KT 10SM FEW060 SCT090 BKN200 07/05 A3018 RMK AO2 SLP232 T00720050 10089 20039 53003
PAOR 191653Z 31004KT 10SM SCT080 SCT200 07/05 A3017 RMK AO2 SLP232 T00670050
PAOR 191553Z AUTO 00000KT 10SM BKN085 05/04 A3017 RMK AO2 SLP231 T00500044 TSNO
PAOR 191453Z AUTO 00000KT 10SM BKN060 OVC080 04/04 A3017 RMK AO2 SLP230 T00440044 52002 TSNO
PAOR 191353Z 00000KT 10SM OVC085 06/05 A3017 RMK AO2 SLP228 T00560050
PAOR 191253Z 00000KT 10SM OVC080 07/05 A3016 RMK AO2 SLP223 T00670050
PAOR 191153Z 00000KT 10SM SCT055 OVC075 07/05 A3016 RMK AO2 SLP223 T00670050 10089 20061 51001
PAOR 191053Z 00000KT 10SM BKN055 OVC080 07/05 A3016 RMK AO2 SLP224 T00720050
PAOR 190953Z 00000KT 10SM BKN050 OVC080 06/05 A3016 RMK AO2 SLP225 T00610050
PAOR 190853Z 00000KT 10SM BKN060 OVC080 07/04 A3016 RMK AO2 SLP224 T00720044 401501022 50002
PAOR 190753Z 00000KT 10SM BKN060 OVC085 07/05 A3016 RMK AO2 SLP226 T00720050
PAOR 190653Z 00000KT 10SM OVC085 08/04 A3016 RMK AO2 SLP229 T00830044
PAOR 190553Z 30005KT 10SM FEW070 OVC085 09/04 A3015 RMK AO2 SLP228 T00890044 10150 20083 51005
PAOR 190453Z AUTO 30005KT 10SM BR SCT070 OVC085 09/04 A3015 RMK AO2 SLP230 T00890044 TSNO
PAOR 190353Z AUTO 31005KT 10SM BR BKN070 OVC090 09/04 A3014 RMK AO2 SLP229 T00940044 TSNO
PAOR 190253Z AUTO 34004KT 10SM BR BKN070 11/03 A3014 RMK AO2 SLP226 T01110033 55003 TSNO
PAOR 190153Z 32004KT 10SM BR BKN065 BKN080 13/03 A3013 RMK AO2 SLP221 T01330028
PAOR 190053Z 29007KT 10SM BR FEW065 SCT080 BKN200 14/02 A3014 RMK AO2 SLP222 T01440017
PAOR 182353Z COR VRB06KT 10SM BR SCT070 BKN200 14/03 A3015 RMK AO2 SLP225 T01440028 10144 20028 58008
PAOR 182253Z 35007KT 10SM BR SCT045 BKN065 14/04 A3015 RMK AO2 SLP226 T01390044
PAOR 182153Z 17006KT 10SM BR SCT045 BKN065 13/05 A3017 RMK AO2 SLP232 T01280050
PAOR 182053Z 33006KT 10SM BR FEW045 BKN070 12/05 A3017 RMK AO2 SLP235 T01170050 58005